ADDS METAR Data INFO
IDs: Format: Raw Decoded Include TAF

Data at: 1102 UTC 17 Jul 2018

KCLE 171051Z 26003KT 10SM CLR 22/20 A2992 RMK AO2 SLP123 T02220200
KCLE 170951Z 29005KT 10SM CLR 23/20 A2990 RMK AO2 SLP118 T02280200
KCLE 170851Z 30004KT 10SM CLR 23/22 A2989 RMK AO2 SLP113 T02330217 56001
KCLE 170751Z 28006KT 9SM CLR 24/22 A2989 RMK AO2 SLP114 T02390222
KCLE 170651Z 24007KT 9SM FEW035 BKN065 24/22 A2988 RMK AO2 SLP112 T02390222
KCLE 170551Z 24005KT 10SM FEW032 23/22 A2989 RMK AO2 SLP113 60071 T02330222 10261 20228 58006
KCLE 170451Z 20006KT 10SM BKN032 24/22 A2990 RMK AO2 SLP116 T02390217 403280228
KCLE 170351Z 20005KT 10SM FEW060 23/22 A2990 RMK AO2 LTG DSNT SE SLP119 T02330217
KCLE 170251Z 20003KT 10SM BKN037 24/22 A2991 RMK AO2 RAB0153E04 SLP120 P0000 60071 T02390217 53009
KCLE 170151Z 16005KT 10SM SCT120 SCT150 23/22 A2988 RMK AO2 LTG DSNT E AND SE RAE15 TSE15 SLP112 P0001 T02330217
KCLE 170121Z 20009KT 10SM SCT120 SCT150 24/22 A2988 RMK AO2 LTG DSNT E AND SE RAE15 TSE15 P0000 T02390217
KCLE 170051Z 18007KT 10SM -TSRA SCT026CB BKN100 BKN110 24/22 A2989 RMK AO2 PK WND 27030/0015 LTG DSNT ALQDS RAB14 SLP113 OCNL LTGICCC OHD TS OHD MOV NE P0070 T02440217
KCLE 170038Z 18008G15KT 3SM -TSRA BKN029CB BKN055 OVC110 24/21 A2989 RMK AO2 PK WND 27030/0015 LTG DSNT ALQDS RAB14 OCNL LTGICCC OHD TS OHD MOV NE P0069 T02390206
KCLE 170028Z 17008G26KT 140V220 1SM TSRA BKN020 BKN039CB OVC050 24/20 A2988 RMK AO2 PK WND 27030/0015 LTG DSNT ALQDS RAB14 OCNL LTGICCC OHD TS OHD MOV NE P0058 T02440200
KCLE 170018Z 26024G30KT 1/4SM +TSRA FG SCT039CB BKN055 OVC110 24/22 A2989 RMK AO2 PK WND 27030/0015 LTG DSNT ALQDS RAB14 OCNL LTGICCC OHD TS OHD MOV NE P0004 T02390217
KCLE 162351Z 34006KT 9SM TS SCT050CB SCT070 OVC095 26/24 A2988 RMK AO2 LTG DSNT NE-S RAB06E39 TSB2254 SLP111 OCNL LTGICCC OHD TS OHD MOV NE P0002 60010 T02610239 10328 20261 55002
KCLE 162300Z 25008KT 10SM TS FEW039 SCT060CB BKN200 30/22 A2987 RMK AO2 LTG DSNT E-SW TSB2254 OCNL LTGICCC OHD TS OHD MOV NE T03000217
KCLE 162251Z 23006KT 10SM FEW039 SCT060 BKN200 29/22 A2987 RMK AO2 LTG DSNT NE-S SLP108 T02940217
KCLE 162151Z 22008KT 10SM SCT043 BKN050 BKN075 31/22 A2988 RMK AO2 SLP109 T03060217
KCLE 162051Z 20007KT 10SM FEW085 SCT110 BKN150 31/22 A2989 RMK AO2 SLP113 60008 T03060222 58019
KCLE 161951Z 15006KT 10SM SCT080 BKN150 30/22 A2990 RMK AO2 WSHFT 1842 RAE13 TSE22 SLP119 P0008 T03000222
KCLE 161923Z 00000KT 10SM FEW030 SCT044 SCT070 BKN150 27/23 A2991 RMK AO2 WSHFT 1842 LTG DSNT S RAE13 TSE22 P0008 T02720228
KCLE 161908Z 26004KT 5SM -TSRA FEW036 BKN048CB OVC085 26/23 A2992 RMK AO2 WSHFT 1842 P0008 T02610228
KCLE 161859Z 23009G22KT 1 1/2SM -TSRA FEW036 BKN048CB OVC085 26/22 A2993 RMK AO2 WSHFT 1842 VIS 1/2V5 P0000 T02610217
KCLE 161851Z 24015G20KT 8SM -TSRA SCT036 BKN045CB BKN060 BKN150 27/22 A2993 RMK AO2 RAB50 TSB35 SLP127 OCNL LTGICCCCG SW TS SW MOV NE P0000 T02720217
KCLE 161841Z 19008KT 10SM TS BKN045CB BKN080 BKN150 30/22 A2993 RMK AO2 TSB35 OCNL LTGICCCCG SW TS SW MOV NE T03000217
KCLE 161751Z 24008G16KT 10SM SCT039 SCT150 BKN250 32/21 A2994 RMK AO2 SLP131 T03220211 10328 20250 58015
KCLE 161651Z 17007KT 10SM FEW050 SCT150 BKN250 31/21 A2997 RMK AO2 SLP140 T03110211
KCLE 161551Z 24007KT 10SM FEW050 BKN150 BKN250 30/22 A2999 RMK AO2 SLP146 T03000217
KCLE 161451Z 23007KT 10SM BKN150 BKN250 29/22 A2999 RMK AO2 SLP147 T02940217 55000 $
KCLE 161351Z 21006KT 10SM BKN150 BKN250 29/22 A2999 RMK AO2 SLP146 T02890222
KCLE 161251Z 23005KT 10SM BKN150 BKN250 26/21 A2999 RMK AO2 SLP147 T02610211
KCLE 161151Z 21007KT 10SM BKN130 BKN250 25/21 A2999 RMK AO2 SLP147 T02500206 10250 20233 50002
KCLE 161051Z 20006KT 10SM BKN130 BKN150 BKN250 24/21 A2999 RMK AO2 SLP147 T02440206
KCLE 160951Z 21004KT 10SM FEW180 FEW250 24/21 A2998 RMK AO2 SLP145 T02390206
KCLE 160851Z 22004KT 10SM BKN250 23/21 A2998 RMK AO2 SLP144 T02330206 56005
KCLE 160751Z 20005KT 10SM BKN250 24/21 A2998 RMK AO2 SLP145 T02440206
KCLE 160651Z 19005KT 10SM SCT250 24/20 A2999 RMK AO2 SLP148 T02440200
KCLE 160551Z 21005KT 10SM FEW250 25/20 A3000 RMK AO2 SLP149 T02500200 10306 20244 51001
KCLE 160451Z 18007KT 10SM CLR 26/21 A3000 RMK AO2 SLP149 T02560206 403280244
KCLE 160351Z 20007KT 10SM CLR 26/21 A3000 RMK AO2 SLP150 T02560206
KCLE 160251Z 19003KT 10SM FEW060 SCT100 27/20 A2999 RMK AO2 SLP148 T02720200 53004
KCLE 160151Z 25003KT 10SM SCT100 27/21 A2999 RMK AO2 SLP146 T02720206
KCLE 160051Z 00000KT 10SM FEW060 FEW100 29/18 A2998 RMK AO2 SLP144 T02940183
KCLE 152351Z 35003KT 10SM CLR 31/19 A2998 RMK AO2 LTG DSNT S SLP144 T03060189 10328 20306 55003